createdAt,value
2022-08-08T00:00:53.876Z,1.20
2022-08-08T00:03:33.415Z,1.10
2022-08-08T00:06:07.685Z,2.00
2022-08-08T00:08:49.255Z,1.02
2022-08-08T00:11:46.804Z,1.10
2022-08-08T00:15:00.143Z,1.23
2022-08-08T00:18:02.079Z,1.20
2022-08-08T00:20:40.587Z,1.40
2022-08-08T00:23:14.791Z,1.23
2022-08-08T00:25:50.776Z,1.15
2022-08-08T00:28:35.705Z,1.00
2022-08-08T00:32:20.646Z,1.00
2022-08-08T00:34:49.705Z,1.20
2022-08-08T00:37:47.349Z,1.10
2022-08-08T00:41:10.899Z,1.23
2022-08-08T00:43:45.939Z,1.05
2022-08-08T00:46:56.833Z,1.30
2022-08-08T00:49:42.902Z,1.13
2022-08-08T00:52:40.155Z,1.30
2022-08-08T00:55:54.149Z,1.08
2022-08-08T00:58:54.432Z,1.02
2022-08-08T01:01:37.951Z,1.27
2022-08-08T01:04:17.010Z,1.35
2022-08-08T01:07:06.019Z,1.27
2022-08-08T01:09:50.862Z,1.20
2022-08-08T01:12:36.032Z,1.20
2022-08-08T01:15:26.157Z,1.15
2022-08-08T01:18:52.971Z,0.95
2022-08-08T01:21:35.128Z,1.10
2022-08-08T01:24:35.642Z,1.08
2022-08-08T01:27:10.774Z,1.17
2022-08-08T01:30:24.288Z,1.20
2022-08-08T01:33:24.332Z,0.93
2022-08-08T01:36:38.349Z,1.30
2022-08-08T01:39:24.197Z,1.30
2022-08-08T01:42:08.878Z,1.20
2022-08-08T01:45:04.094Z,1.27
2022-08-08T01:48:14.006Z,1.15
2022-08-08T01:50:48.901Z,1.20
2022-08-08T01:55:17.937Z,1.23
2022-08-08T01:57:22.527Z,1.13
2022-08-08T02:00:05.792Z,1.20
2022-08-08T02:02:57.771Z,1.15
2022-08-08T02:05:33.586Z,1.20
2022-08-08T02:08:03.367Z,1.10
2022-08-08T02:11:00.535Z,1.45
2022-08-08T02:13:54.141Z,1.27
2022-08-08T02:16:42.949Z,1.40
2022-08-08T02:19:57.903Z,1.48
2022-08-08T02:22:33.765Z,1.25
2022-08-08T02:25:11.563Z,1.35
2022-08-08T02:28:10.900Z,1.20
2022-08-08T02:31:04.813Z,1.30
2022-08-08T02:34:33.187Z,1.30
2022-08-08T02:37:52.520Z,1.58
2022-08-08T02:40:56.312Z,1.50
2022-08-08T02:44:38.612Z,1.60
2022-08-08T02:47:00.345Z,1.50
2022-08-08T02:49:51.223Z,1.45
2022-08-08T02:52:39.652Z,1.60
2022-08-08T02:55:31.778Z,1.42
2022-08-08T02:58:43.146Z,1.55
2022-08-08T03:01:14.724Z,1.33
2022-08-08T03:05:02.826Z,1.70
2022-08-08T03:07:13.583Z,1.40
2022-08-08T03:10:07.971Z,1.63
2022-08-08T03:15:54.447Z,1.55
2022-08-08T03:16:37.446Z,1.77
2022-08-08T03:19:37.236Z,1.60
2022-08-08T03:22:04.855Z,1.50
2022-08-08T03:24:52.474Z,1.40
2022-08-08T03:27:35.847Z,1.40
2022-08-08T03:30:11.346Z,1.63
2022-08-08T03:33:07.844Z,1.50
2022-08-08T03:35:51.958Z,1.50
2022-08-08T03:38:56.609Z,1.85
2022-08-08T03:42:04.136Z,1.30
2022-08-08T03:43:59.662Z,1.77
2022-08-08T03:46:32.595Z,1.70
2022-08-08T03:49:26.529Z,1.70
2022-08-08T03:51:53.478Z,1.75
2022-08-08T03:54:41.472Z,1.80
2022-08-08T03:58:31.806Z,2.00
2022-08-08T04:00:11.704Z,1.55
2022-08-08T04:02:47.757Z,1.75
2022-08-08T04:05:19.571Z,1.90
2022-08-08T04:07:54.294Z,1.63
2022-08-08T04:10:21.491Z,1.63
2022-08-08T04:12:49.890Z,2.00
2022-08-08T04:15:17.074Z,1.70
2022-08-08T04:17:58.936Z,1.80
2022-08-08T04:20:28.361Z,1.83
2022-08-08T04:22:56.957Z,2.15
2022-08-08T04:25:27.966Z,1.98
2022-08-08T04:28:02.479Z,1.90
2022-08-08T04:30:44.656Z,2.03
2022-08-08T04:33:11.674Z,2.15
2022-08-08T04:35:50.693Z,1.80
2022-08-08T04:38:20.975Z,1.60
2022-08-08T04:40:51.780Z,1.70
2022-08-08T04:43:21.961Z,1.70
2022-08-08T04:45:50.083Z,1.70
2022-08-08T04:48:21.702Z,1.48
2022-08-08T04:50:49.021Z,1.33
2022-08-08T04:54:27.144Z,1.50
2022-08-08T04:56:04.202Z,1.70
2022-08-08T04:58:31.160Z,1.30
2022-08-08T05:00:59.932Z,1.70
2022-08-08T05:04:10.215Z,1.90
2022-08-08T05:06:27.985Z,1.33
2022-08-08T05:09:02.841Z,1.67
2022-08-08T05:11:39.628Z,1.53
2022-08-08T05:14:08.793Z,1.60
2022-08-08T05:16:55.394Z,1.40
2022-08-08T05:20:04.212Z,1.35
2022-08-08T05:22:12.936Z,1.48
2022-08-08T05:24:40.145Z,1.67
2022-08-08T05:27:07.619Z,1.50
2022-08-08T05:29:36.028Z,1.45
2022-08-08T05:32:07.279Z,1.70
2022-08-08T05:34:43.659Z,1.75
2022-08-08T05:37:17.222Z,1.70
2022-08-08T05:39:56.730Z,1.80
2022-08-08T05:42:33.522Z,1.50
2022-08-08T05:45:10.348Z,1.48
2022-08-08T05:48:00.466Z,1.45
2022-08-08T05:50:36.002Z,1.40
2022-08-08T05:53:54.290Z,1.40
2022-08-08T05:56:11.365Z,1.40
2022-08-08T05:58:53.483Z,1.40
2022-08-08T06:01:52.749Z,1.40
2022-08-08T06:04:22.781Z,1.33
2022-08-08T06:06:56.758Z,1.40
2022-08-08T06:09:58.521Z,1.40
2022-08-08T06:12:29.712Z,1.37
2022-08-08T06:15:00.820Z,1.50
2022-08-08T06:17:50.521Z,1.43
2022-08-08T06:20:16.351Z,1.73
2022-08-08T06:22:46.292Z,1.50
2022-08-08T06:25:16.296Z,1.67
2022-08-08T06:27:59.478Z,1.35
2022-08-08T06:30:28.356Z,1.40
2022-08-08T06:32:57.353Z,1.35
2022-08-08T06:36:04.724Z,1.73
2022-08-08T06:38:21.612Z,1.70
2022-08-08T06:41:02.977Z,1.38
2022-08-08T06:43:37.009Z,1.30
2022-08-08T06:46:04.769Z,1.25
2022-08-08T06:48:38.263Z,1.45
2022-08-08T06:51:07.750Z,1.23
2022-08-08T06:53:39.691Z,1.40
2022-08-08T06:56:17.920Z,1.35
2022-08-08T06:58:49.884Z,1.20
2022-08-08T07:02:17.100Z,1.20
2022-08-08T07:04:38.733Z,1.20
2022-08-08T07:07:00.635Z,1.25
2022-08-08T07:09:45.658Z,1.20
2022-08-08T07:12:43.614Z,1.00
2022-08-08T07:15:32.078Z,0.95
2022-08-08T07:18:36.612Z,1.13
2022-08-08T07:21:02.072Z,1.50
2022-08-08T07:24:01.672Z,1.23
2022-08-08T07:26:35.518Z,1.10
2022-08-08T07:29:05.825Z,1.10
2022-08-08T07:31:36.071Z,1.10
2022-08-08T07:34:08.872Z,1.20
2022-08-08T07:36:42.084Z,1.10
2022-08-08T07:39:29.756Z,1.25
2022-08-08T07:42:13.403Z,1.15
2022-08-08T07:44:48.004Z,1.00
2022-08-08T07:47:18.002Z,1.00
2022-08-08T07:49:57.530Z,1.10
2022-08-08T07:52:26.975Z,1.02
2022-08-08T07:54:56.678Z,1.13
2022-08-08T07:57:29.812Z,1.10
2022-08-08T08:00:13.339Z,0.90
2022-08-08T08:03:04.236Z,1.37
2022-08-08T08:05:33.974Z,0.90
2022-08-08T08:08:07.115Z,1.30
2022-08-08T08:10:36.141Z,1.10
2022-08-08T08:13:42.888Z,1.13
2022-08-08T08:16:20.259Z,1.10
2022-08-08T08:19:09.055Z,1.00
2022-08-08T08:21:56.846Z,1.02
2022-08-08T08:24:30.722Z,1.27
2022-08-08T08:26:59.474Z,1.10
2022-08-08T08:29:28.529Z,0.88
2022-08-08T08:31:58.152Z,1.20
2022-08-08T08:34:32.529Z,0.90
2022-08-08T08:37:03.268Z,0.90
2022-08-08T08:39:59.645Z,1.02
2022-08-08T08:42:35.141Z,1.20
2022-08-08T08:45:21.664Z,1.00
2022-08-08T08:47:53.622Z,0.82
2022-08-08T08:50:32.595Z,1.10
2022-08-08T08:53:27.934Z,0.88
2022-08-08T08:55:53.537Z,1.00
2022-08-08T08:58:30.236Z,0.90
2022-08-08T09:01:08.621Z,0.88
2022-08-08T09:03:47.579Z,0.70
2022-08-08T09:06:33.578Z,0.75
2022-08-08T09:09:26.521Z,1.00
2022-08-08T09:12:07.805Z,0.80
2022-08-08T09:14:42.498Z,0.80
2022-08-08T09:17:17.395Z,1.00
2022-08-08T09:22:02.130Z,1.00
2022-08-08T09:22:39.243Z,0.93
2022-08-08T09:25:07.588Z,0.90
2022-08-08T09:27:42.065Z,0.98
2022-08-08T09:30:25.969Z,1.10
2022-08-08T09:33:12.226Z,0.90
2022-08-08T09:35:50.161Z,1.00
2022-08-08T09:38:53.806Z,0.95
2022-08-08T09:41:54.942Z,1.00
2022-08-08T09:44:48.433Z,1.00
2022-08-08T09:47:26.008Z,0.90
2022-08-08T09:50:28.077Z,0.85
2022-08-08T09:52:59.315Z,0.90
2022-08-08T09:56:03.008Z,0.93
2022-08-08T09:58:25.711Z,0.90
2022-08-08T10:01:01.970Z,0.90
2022-08-08T10:03:33.887Z,1.23
2022-08-08T10:06:19.833Z,0.95
2022-08-08T10:08:57.331Z,0.90
2022-08-08T10:12:26.528Z,1.10
2022-08-08T10:14:34.908Z,0.90
2022-08-08T10:16:59.090Z,0.90
2022-08-08T10:19:46.294Z,0.80
2022-08-08T10:22:27.318Z,1.00
2022-08-08T10:25:05.359Z,1.00
2022-08-08T10:27:42.083Z,1.52
2022-08-08T10:30:16.689Z,0.93
2022-08-08T10:33:00.466Z,0.90
2022-08-08T10:36:08.312Z,0.80
2022-08-08T10:38:19.718Z,1.15
2022-08-08T10:40:52.122Z,1.20
2022-08-08T10:43:20.323Z,0.88
2022-08-08T10:45:55.892Z,0.90
2022-08-08T10:48:37.390Z,0.80
2022-08-08T10:51:21.128Z,1.13
2022-08-08T10:53:57.430Z,0.80
2022-08-08T10:56:27.879Z,1.02
2022-08-08T10:59:00.377Z,0.98
2022-08-08T11:01:33.661Z,0.90
2022-08-08T11:04:04.435Z,1.02
2022-08-08T11:06:36.291Z,0.90
2022-08-08T11:09:20.189Z,0.88
2022-08-08T11:12:05.703Z,0.90
2022-08-08T11:14:57.010Z,1.10
2022-08-08T11:18:00.663Z,1.02
2022-08-08T11:20:23.727Z,1.05
2022-08-08T11:22:59.014Z,0.90
2022-08-08T11:25:53.000Z,0.85
2022-08-08T11:28:22.888Z,0.85
2022-08-08T11:30:55.743Z,0.93
2022-08-08T11:33:52.903Z,0.90
2022-08-08T11:36:15.040Z,0.90
2022-08-08T11:38:54.172Z,0.90
2022-08-08T11:41:23.862Z,1.00
2022-08-08T11:43:53.774Z,0.98
2022-08-08T11:46:24.747Z,0.80
2022-08-08T11:48:53.034Z,1.23
2022-08-08T11:51:30.310Z,1.00
2022-08-08T11:54:26.837Z,0.90
2022-08-08T11:56:56.774Z,0.90
2022-08-08T11:59:57.782Z,0.85
2022-08-08T12:02:35.150Z,0.98
2022-08-08T12:05:12.328Z,0.90
2022-08-08T12:07:55.764Z,0.90
2022-08-08T12:10:28.456Z,0.95
2022-08-08T12:13:10.314Z,1.10
2022-08-08T12:15:42.350Z,1.05
2022-08-08T12:18:24.484Z,1.10
2022-08-08T12:20:58.779Z,0.90
2022-08-08T12:23:43.151Z,1.00
2022-08-08T12:26:28.314Z,1.00
2022-08-08T12:29:19.673Z,0.90
2022-08-08T12:31:53.959Z,0.95
2022-08-08T12:34:39.029Z,1.00
2022-08-08T12:37:08.809Z,1.10
2022-08-08T12:39:59.778Z,1.05
2022-08-08T12:42:27.456Z,0.98
2022-08-08T12:45:57.809Z,0.90
2022-08-08T12:48:18.324Z,1.00
2022-08-08T12:50:57.620Z,1.10
2022-08-08T12:53:35.166Z,1.10
2022-08-08T12:56:17.970Z,0.80
2022-08-08T12:58:49.437Z,0.90
2022-08-08T13:01:16.466Z,1.20
2022-08-08T13:03:51.895Z,1.10
2022-08-08T13:06:20.380Z,1.23
2022-08-08T13:08:53.712Z,0.90
2022-08-08T13:12:27.051Z,1.08
2022-08-08T13:14:53.430Z,1.02
2022-08-08T13:18:09.932Z,0.80
2022-08-08T13:20:18.589Z,1.25
2022-08-08T13:22:46.408Z,1.15
2022-08-08T13:25:21.182Z,0.80
2022-08-08T13:27:54.454Z,0.73
2022-08-08T13:30:26.582Z,1.20
2022-08-08T13:32:56.264Z,0.80
2022-08-08T13:35:38.613Z,0.73
2022-08-08T13:38:13.309Z,1.00
2022-08-08T13:40:45.166Z,1.02
2022-08-08T13:43:16.082Z,0.90
2022-08-08T13:45:43.700Z,0.90
2022-08-08T13:48:16.025Z,0.90
2022-08-08T13:50:49.287Z,1.00
2022-08-08T13:54:00.256Z,1.00
2022-08-08T13:56:44.567Z,1.02
2022-08-08T13:59:32.716Z,0.88
2022-08-08T14:02:05.369Z,1.05
2022-08-08T14:04:35.294Z,1.00
2022-08-08T14:07:04.805Z,0.90
2022-08-08T14:10:04.211Z,1.00
2022-08-08T14:12:20.410Z,0.90
2022-08-08T14:14:47.394Z,0.75
2022-08-08T14:17:22.196Z,1.10
2022-08-08T14:20:15.554Z,1.10
2022-08-08T14:22:55.753Z,0.80
2022-08-08T14:25:22.878Z,0.70
2022-08-08T14:27:59.524Z,1.00
2022-08-08T14:30:34.483Z,0.82
2022-08-08T14:33:02.882Z,1.10
2022-08-08T14:35:41.604Z,1.20
2022-08-08T14:38:33.011Z,1.00
2022-08-08T14:40:59.565Z,1.00
2022-08-08T14:44:01.880Z,1.08
2022-08-08T14:46:22.315Z,0.90
2022-08-08T14:49:02.653Z,1.00
2022-08-08T14:51:52.024Z,1.08
2022-08-08T14:54:28.618Z,1.10
2022-08-08T14:56:57.292Z,0.82
2022-08-08T14:59:44.185Z,0.80
2022-08-08T15:02:15.236Z,1.10
2022-08-08T15:04:42.497Z,0.80
2022-08-08T15:07:22.278Z,1.00
2022-08-08T15:09:52.463Z,1.00
2022-08-08T15:12:27.372Z,0.90
2022-08-08T15:14:55.691Z,0.90
2022-08-08T15:17:23.251Z,0.70
2022-08-08T15:19:50.826Z,0.98
2022-08-08T15:22:23.323Z,0.80
2022-08-08T15:24:51.394Z,1.10
2022-08-08T15:28:03.507Z,0.90
2022-08-08T15:30:12.204Z,0.90
2022-08-08T15:32:39.919Z,0.85
2022-08-08T15:35:07.517Z,1.20
2022-08-08T15:37:34.387Z,1.00
2022-08-08T15:40:01.292Z,0.88
2022-08-08T15:42:32.615Z,0.88
2022-08-08T15:45:01.011Z,0.80
2022-08-08T15:47:28.816Z,0.90
2022-08-08T15:49:58.847Z,0.80
2022-08-08T15:52:25.767Z,0.98
2022-08-08T15:54:53.706Z,1.05
2022-08-08T15:57:21.864Z,0.88
2022-08-08T16:00:06.113Z,0.90
2022-08-08T16:02:36.933Z,1.33
2022-08-08T16:05:13.845Z,1.08
2022-08-08T16:07:51.604Z,0.82
2022-08-08T16:13:05.370Z,0.90
2022-08-08T16:13:28.379Z,0.90
2022-08-08T16:15:58.995Z,0.90
2022-08-08T16:18:30.536Z,1.00
2022-08-08T16:21:00.352Z,1.00
2022-08-08T16:23:32.478Z,1.00
2022-08-08T16:26:03.985Z,1.10
2022-08-08T16:28:35.488Z,0.75
2022-08-08T16:31:07.513Z,1.00
2022-08-08T16:33:38.696Z,0.90
2022-08-08T16:36:08.923Z,0.90
2022-08-08T16:38:44.355Z,0.80
2022-08-08T16:41:18.401Z,1.00
2022-08-08T16:43:49.032Z,1.10
2022-08-08T16:46:37.979Z,1.15
2022-08-08T16:49:08.061Z,1.00
2022-08-08T16:55:05.800Z,1.00
2022-08-08T16:55:06.671Z,1.00
2022-08-08T16:57:27.733Z,1.02
2022-08-08T17:00:08.541Z,1.35
2022-08-08T17:02:39.771Z,0.90
2022-08-08T17:05:08.599Z,1.00
2022-08-08T17:07:37.680Z,0.85
2022-08-08T17:10:08.533Z,1.15
2022-08-08T17:12:36.780Z,0.70
2022-08-08T17:15:17.983Z,0.82
2022-08-08T17:18:03.537Z,0.90
2022-08-08T17:20:32.504Z,1.15
2022-08-08T17:23:16.619Z,1.27
2022-08-08T17:25:53.374Z,1.10
2022-08-08T17:28:34.888Z,1.27
2022-08-08T17:31:45.573Z,1.25
2022-08-08T17:34:37.525Z,1.20
2022-08-08T17:36:37.600Z,1.17
2022-08-08T17:39:46.277Z,1.02
2022-08-08T17:42:02.605Z,1.08
2022-08-08T17:44:31.308Z,1.17
2022-08-08T17:46:58.134Z,1.02
2022-08-08T17:49:28.528Z,1.08
2022-08-08T17:51:55.643Z,1.20
2022-08-08T17:54:26.187Z,1.05
2022-08-08T17:56:56.143Z,1.05
2022-08-08T17:59:30.493Z,1.42
2022-08-08T18:02:03.936Z,1.23
2022-08-08T18:04:33.518Z,1.33
2022-08-08T18:07:04.796Z,1.38
2022-08-08T18:09:51.425Z,1.10
2022-08-08T18:12:18.255Z,0.82
2022-08-08T18:14:48.782Z,0.85
2022-08-08T18:17:17.638Z,0.93
2022-08-08T18:20:43.508Z,1.00
2022-08-08T18:22:52.971Z,0.90
2022-08-08T18:25:19.725Z,1.13
2022-08-08T18:27:46.350Z,0.93
2022-08-08T18:30:13.521Z,1.40
2022-08-08T18:32:41.966Z,1.35
2022-08-08T18:35:15.811Z,0.98
2022-08-08T18:37:47.923Z,1.17
2022-08-08T18:40:15.571Z,1.10
2022-08-08T18:42:50.002Z,1.25
2022-08-08T18:46:06.267Z,1.23
2022-08-08T18:48:07.540Z,1.10
2022-08-08T18:50:39.426Z,1.27
2022-08-08T18:53:06.523Z,1.23
2022-08-08T18:55:34.044Z,1.05
2022-08-08T18:58:01.749Z,1.05
2022-08-08T19:00:28.848Z,1.10
2022-08-08T19:03:05.966Z,0.98
2022-08-08T19:05:45.504Z,1.33
2022-08-08T19:08:25.665Z,1.13
2022-08-08T19:10:56.727Z,1.20
2022-08-08T19:13:24.371Z,1.25
2022-08-08T19:15:55.998Z,0.98
2022-08-08T19:18:32.078Z,1.20
2022-08-08T19:21:29.616Z,1.20
2022-08-08T19:23:57.051Z,1.65
2022-08-08T19:26:30.303Z,1.10
2022-08-08T19:29:01.355Z,1.25
2022-08-08T19:31:31.558Z,1.30
2022-08-08T19:41:33.923Z,1.40
2022-08-08T19:44:04.058Z,1.30
2022-08-08T19:46:39.481Z,1.50
2022-08-08T19:49:06.159Z,1.40
2022-08-08T19:51:41.589Z,1.50
2022-08-08T19:54:10.904Z,1.33
2022-08-08T19:56:39.762Z,1.20
2022-08-08T19:59:08.827Z,1.20
2022-08-08T20:01:50.317Z,1.33
2022-08-08T20:04:23.777Z,1.20
2022-08-08T20:06:51.050Z,1.52
2022-08-08T20:09:22.659Z,1.35
2022-08-08T20:11:50.646Z,1.67
2022-08-08T20:14:34.159Z,1.48
2022-08-08T20:17:03.340Z,1.40
2022-08-08T20:19:33.535Z,1.60
2022-08-08T20:22:13.101Z,1.52
2022-08-08T20:24:48.478Z,1.50
2022-08-08T20:27:20.314Z,1.40
2022-08-08T20:30:00.541Z,1.40
2022-08-08T20:32:29.586Z,1.73
2022-08-08T20:35:01.562Z,1.30
2022-08-08T20:37:47.053Z,1.80
2022-08-08T20:40:17.595Z,1.70
2022-08-08T20:43:00.929Z,1.50
2022-08-08T20:45:57.897Z,1.50
2022-08-08T20:48:18.575Z,1.50
2022-08-08T20:50:49.510Z,1.58
2022-08-08T20:53:57.938Z,1.80
2022-08-08T20:56:03.115Z,1.63
2022-08-08T20:58:29.854Z,1.38
2022-08-08T21:00:58.170Z,1.48
2022-08-08T21:03:25.138Z,1.33
2022-08-08T21:05:59.397Z,1.70
2022-08-08T21:08:36.208Z,1.67
2022-08-08T21:11:13.523Z,1.73
2022-08-08T21:13:41.660Z,1.60
2022-08-08T21:16:17.658Z,1.50
2022-08-08T21:18:48.715Z,1.42
2022-08-08T21:21:19.616Z,1.70
2022-08-08T21:24:09.269Z,1.75
2022-08-08T21:26:46.152Z,1.70
2022-08-08T21:29:19.798Z,1.80
2022-08-08T21:31:57.834Z,1.70
2022-08-08T21:34:30.104Z,1.75
2022-08-08T21:36:58.545Z,1.50
2022-08-08T21:39:41.523Z,1.60
2022-08-08T21:42:12.143Z,1.70
2022-08-08T21:44:38.887Z,1.75
2022-08-08T21:48:04.711Z,2.10
2022-08-08T21:50:12.503Z,2.00
2022-08-08T21:54:32.648Z,2.00
2022-08-08T21:56:19.748Z,1.75
2022-08-08T21:58:13.881Z,1.65
2022-08-08T22:00:41.195Z,1.92
2022-08-08T22:03:11.017Z,1.70
2022-08-08T22:05:42.360Z,2.13
2022-08-08T22:08:09.402Z,1.58
2022-08-08T22:10:37.689Z,1.90
2022-08-08T22:13:18.311Z,1.90
2022-08-08T22:15:58.504Z,1.88
2022-08-08T22:18:29.942Z,2.15
2022-08-08T22:20:59.427Z,2.00
2022-08-08T22:23:32.595Z,1.60
2022-08-08T22:26:27.506Z,1.88
2022-08-08T22:29:13.989Z,1.85
2022-08-08T22:31:35.180Z,2.40
2022-08-08T22:34:12.214Z,1.90
2022-08-08T22:36:42.612Z,2.00
2022-08-08T22:39:18.941Z,2.20
2022-08-08T22:41:46.755Z,2.78
2022-08-08T22:44:16.658Z,2.35
2022-08-08T22:46:45.802Z,2.20
2022-08-08T22:49:12.743Z,2.40
2022-08-08T22:51:46.907Z,2.28
2022-08-08T22:54:31.405Z,2.28
2022-08-08T22:57:02.135Z,2.28
2022-08-08T22:59:58.671Z,2.22
2022-08-08T23:02:28.391Z,2.30
2022-08-08T23:05:01.965Z,2.28
2022-08-08T23:07:51.935Z,2.20
2022-08-08T23:10:21.626Z,2.30
2022-08-08T23:12:52.361Z,2.13
2022-08-08T23:16:37.716Z,2.30
2022-08-08T23:18:11.626Z,2.10
2022-08-08T23:20:39.788Z,2.10
2022-08-08T23:23:06.462Z,2.10
2022-08-08T23:25:37.229Z,2.28
2022-08-08T23:28:11.756Z,1.83
2022-08-08T23:30:38.371Z,2.20
2022-08-08T23:33:19.432Z,2.20
2022-08-08T23:36:06.644Z,2.00
2022-08-08T23:38:35.397Z,2.50
2022-08-08T23:41:02.411Z,2.22
2022-08-08T23:43:45.898Z,1.95
2022-08-08T23:49:03.737Z,2.33
2022-08-08T23:49:15.318Z,2.08
2022-08-08T23:52:06.104Z,2.45
2022-08-08T23:54:41.630Z,2.15
2022-08-08T23:57:26.410Z,2.08
